createdAt,value
2023-01-23T00:01:36.672Z,10.80
2023-01-23T00:04:05.131Z,12.00
2023-01-23T00:06:32.853Z,13.37
2023-01-23T00:09:01.514Z,11.07
2023-01-23T00:11:30.950Z,11.73
2023-01-23T00:14:01.427Z,10.10
2023-01-23T00:16:31.341Z,12.00
2023-01-23T00:18:59.931Z,10.30
2023-01-23T00:21:29.750Z,10.87
2023-01-23T00:23:59.232Z,11.57
2023-01-23T00:26:29.226Z,11.60
2023-01-23T00:28:57.516Z,10.80
2023-01-23T00:31:28.274Z,12.27
2023-01-23T00:33:58.106Z,12.83
2023-01-23T00:36:28.984Z,10.97
2023-01-23T00:38:57.038Z,11.93
2023-01-23T00:41:24.919Z,12.57
2023-01-23T00:43:52.816Z,12.90
2023-01-23T00:46:21.302Z,11.27
2023-01-23T00:48:50.975Z,12.27
2023-01-23T00:51:18.942Z,11.70
2023-01-23T00:53:46.811Z,11.50
2023-01-23T00:56:14.834Z,13.03
2023-01-23T00:58:45.024Z,13.37
2023-01-23T01:01:13.680Z,12.50
2023-01-23T01:03:41.473Z,12.80
2023-01-23T01:06:10.993Z,12.40
2023-01-23T01:08:39.122Z,12.77
2023-01-23T01:11:14.736Z,13.47
2023-01-23T01:13:43.060Z,14.97
2023-01-23T01:16:11.041Z,12.37
2023-01-23T01:18:39.413Z,13.80
2023-01-23T01:21:08.594Z,13.27
2023-01-23T01:23:38.602Z,14.27
2023-01-23T01:26:07.242Z,13.63
2023-01-23T01:28:36.990Z,13.80
2023-01-23T01:31:06.777Z,14.27
2023-01-23T01:33:34.592Z,14.20
2023-01-23T01:36:02.558Z,14.93
2023-01-23T01:38:30.307Z,13.83
2023-01-23T01:40:59.327Z,13.00
2023-01-23T01:43:28.194Z,15.48
2023-01-23T01:46:10.086Z,13.97
2023-01-23T01:48:41.681Z,13.23
2023-01-23T01:51:14.508Z,13.60
2023-01-23T01:53:42.850Z,12.20
2023-01-23T01:56:14.810Z,14.00
2023-01-23T01:58:45.241Z,14.30
2023-01-23T02:01:13.071Z,13.87
2023-01-23T02:03:41.268Z,12.67
2023-01-23T02:06:09.218Z,13.60
2023-01-23T02:08:44.066Z,13.00
2023-01-23T02:11:15.110Z,13.20
2023-01-23T02:13:43.079Z,13.30
2023-01-23T02:16:13.327Z,14.40
2023-01-23T02:18:45.586Z,14.50
2023-01-23T02:21:16.492Z,13.23
2023-01-23T02:23:57.555Z,13.73
2023-01-23T02:26:32.722Z,13.40
2023-01-23T02:29:00.613Z,17.40
2023-01-23T02:31:28.519Z,14.27
2023-01-23T02:33:58.187Z,14.93
2023-01-23T02:36:29.125Z,15.57
2023-01-23T02:39:03.366Z,14.23
2023-01-23T02:41:34.853Z,13.90
2023-01-23T02:44:05.874Z,13.77
2023-01-23T02:46:33.597Z,15.20
2023-01-23T02:49:01.339Z,16.40
2023-01-23T02:51:29.037Z,16.83
2023-01-23T02:53:56.726Z,14.83
2023-01-23T02:56:24.436Z,14.77
2023-01-23T02:59:10.935Z,14.40
2023-01-23T03:01:38.734Z,15.10
2023-01-23T03:04:06.967Z,14.20
2023-01-23T03:06:37.613Z,14.83
2023-01-23T03:09:08.596Z,14.90
2023-01-23T03:11:38.427Z,14.77
2023-01-23T03:14:10.327Z,21.45
2023-01-23T03:16:38.656Z,17.33
2023-01-23T03:19:09.217Z,18.40
2023-01-23T03:21:40.256Z,17.00
2023-01-23T03:24:09.585Z,21.88
2023-01-23T03:26:39.462Z,18.67
2023-01-23T03:29:26.803Z,16.27
2023-01-23T03:31:54.612Z,17.27
2023-01-23T03:34:22.832Z,17.17
2023-01-23T03:36:50.604Z,16.70
2023-01-23T03:39:36.116Z,16.13
2023-01-23T03:42:03.847Z,17.13
2023-01-23T03:44:32.867Z,16.90
2023-01-23T03:47:00.597Z,16.87
2023-01-23T03:49:28.364Z,17.00
2023-01-23T03:51:56.149Z,16.17
2023-01-23T03:54:23.986Z,15.80
2023-01-23T03:56:51.671Z,17.13
2023-01-23T03:59:19.649Z,18.07
2023-01-23T04:01:48.929Z,17.30
2023-01-23T04:04:16.670Z,17.37
2023-01-23T04:06:44.350Z,18.40
2023-01-23T04:09:12.960Z,15.60
2023-01-23T04:11:40.674Z,16.20
2023-01-23T04:14:09.668Z,16.67
2023-01-23T04:16:37.490Z,17.50
2023-01-23T04:19:06.544Z,17.03
2023-01-23T04:21:34.236Z,17.90
2023-01-23T04:24:01.933Z,16.83
2023-01-23T04:26:29.605Z,15.37
2023-01-23T04:28:57.273Z,16.13
2023-01-23T04:31:25.080Z,15.60
2023-01-23T04:33:52.959Z,16.57
2023-01-23T04:36:21.976Z,16.17
2023-01-23T04:38:49.663Z,18.07
2023-01-23T04:41:21.332Z,17.53
2023-01-23T04:43:49.057Z,16.50
2023-01-23T04:46:16.817Z,16.50
2023-01-23T04:48:45.174Z,15.90
2023-01-23T04:51:13.795Z,16.63
2023-01-23T04:53:42.835Z,19.20
2023-01-23T04:56:10.541Z,17.67
2023-01-23T04:58:38.216Z,18.40
2023-01-23T05:01:07.655Z,18.57
2023-01-23T05:03:35.748Z,18.77
2023-01-23T05:06:03.566Z,17.97
2023-01-23T05:08:31.250Z,17.00
2023-01-23T05:11:00.271Z,15.47
2023-01-23T05:13:27.990Z,17.00
2023-01-23T05:15:55.731Z,16.73
2023-01-23T05:18:23.428Z,17.93
2023-01-23T05:20:51.138Z,18.23
2023-01-23T05:23:18.880Z,16.47
2023-01-23T05:25:47.080Z,18.33
2023-01-23T05:28:16.146Z,20.00
2023-01-23T05:30:43.945Z,18.23
2023-01-23T05:33:11.699Z,17.47
2023-01-23T05:35:39.887Z,18.93
2023-01-23T05:38:07.947Z,17.83
2023-01-23T05:40:35.654Z,17.23
2023-01-23T05:43:03.347Z,16.83
2023-01-23T05:45:32.366Z,18.10
2023-01-23T05:48:00.047Z,18.10
2023-01-23T05:50:27.771Z,18.57
2023-01-23T05:52:55.445Z,17.50
2023-01-23T05:55:23.431Z,18.00
2023-01-23T05:57:51.486Z,17.33
2023-01-23T06:00:20.422Z,19.07
2023-01-23T06:02:49.780Z,17.40
2023-01-23T06:05:17.618Z,19.00
2023-01-23T06:07:45.299Z,19.23
2023-01-23T06:10:13.003Z,20.10
2023-01-23T06:12:40.779Z,19.50
2023-01-23T06:15:09.307Z,18.23
2023-01-23T06:17:37.132Z,18.57
2023-01-23T06:20:07.098Z,20.53
2023-01-23T06:22:34.883Z,20.27
2023-01-23T06:25:02.588Z,18.67
2023-01-23T06:27:30.292Z,18.83
2023-01-23T06:29:58.006Z,18.57
2023-01-23T06:32:25.712Z,18.20
2023-01-23T06:34:53.487Z,18.37
2023-01-23T06:37:22.519Z,17.37
2023-01-23T06:39:50.237Z,17.83
2023-01-23T06:42:18.044Z,17.20
2023-01-23T06:44:45.770Z,18.02
2023-01-23T06:47:13.504Z,20.47
2023-01-23T06:49:41.177Z,17.80
2023-01-23T06:52:08.867Z,19.97
2023-01-23T06:54:38.081Z,19.00
2023-01-23T06:57:05.802Z,20.47
2023-01-23T06:59:33.634Z,18.50
2023-01-23T07:02:01.481Z,18.23
2023-01-23T07:04:29.252Z,18.70
2023-01-23T07:06:57.139Z,19.80
2023-01-23T07:09:24.854Z,19.53
2023-01-23T07:11:53.983Z,19.17
2023-01-23T07:14:21.690Z,19.87
2023-01-23T07:16:49.596Z,19.80
2023-01-23T07:19:17.273Z,20.43
2023-01-23T07:21:45.073Z,19.90
2023-01-23T07:24:12.749Z,19.93
2023-01-23T07:26:40.481Z,20.57
2023-01-23T07:29:09.979Z,21.13
2023-01-23T07:31:38.174Z,18.57
2023-01-23T07:34:05.893Z,21.00
2023-01-23T07:36:33.605Z,20.43
2023-01-23T07:39:01.286Z,20.47
2023-01-23T07:41:31.433Z,20.40
2023-01-23T07:43:59.137Z,19.53
2023-01-23T07:46:28.197Z,19.40
2023-01-23T07:48:56.205Z,21.10
2023-01-23T07:51:23.968Z,18.37
2023-01-23T07:53:51.912Z,19.10
2023-01-23T07:56:19.699Z,18.70
2023-01-23T07:58:50.593Z,21.73
2023-01-23T08:01:19.236Z,20.43
2023-01-23T08:03:48.703Z,19.30
2023-01-23T08:06:16.447Z,19.20
2023-01-23T08:08:44.141Z,19.10
2023-01-23T08:11:13.516Z,18.90
2023-01-23T08:13:41.813Z,18.53
2023-01-23T08:16:12.027Z,17.80
2023-01-23T08:18:41.205Z,16.80
2023-01-23T08:21:10.703Z,20.77
2023-01-23T08:23:38.854Z,17.07
2023-01-23T08:26:08.622Z,24.25
2023-01-23T08:28:36.684Z,20.27
2023-01-23T08:31:06.992Z,20.13
2023-01-23T08:33:35.205Z,18.83
2023-01-23T08:36:03.737Z,18.60
2023-01-23T08:38:33.526Z,17.80
2023-01-23T08:41:02.794Z,19.30
2023-01-23T08:43:31.693Z,18.20
2023-01-23T08:46:00.702Z,19.47
2023-01-23T08:48:29.255Z,20.43
2023-01-23T08:51:03.629Z,18.00
2023-01-23T08:53:33.698Z,18.13
2023-01-23T08:56:01.952Z,17.50
2023-01-23T08:58:29.834Z,17.33
2023-01-23T09:00:58.138Z,19.67
2023-01-23T09:03:26.865Z,19.90
2023-01-23T09:05:54.591Z,18.57
2023-01-23T09:08:22.305Z,18.63
2023-01-23T09:10:51.364Z,20.33
2023-01-23T09:13:19.893Z,19.23
2023-01-23T09:15:48.191Z,18.57
2023-01-23T09:18:15.984Z,18.50
2023-01-23T09:20:43.788Z,20.83
2023-01-23T09:23:11.539Z,19.30
2023-01-23T09:25:39.369Z,17.43
2023-01-23T09:28:08.618Z,22.80
2023-01-23T09:30:36.931Z,20.40
2023-01-23T09:33:04.812Z,20.17
2023-01-23T09:35:33.160Z,22.53
2023-01-23T09:38:01.132Z,22.77
2023-01-23T09:40:31.733Z,21.30
2023-01-23T09:43:03.818Z,19.47
2023-01-23T09:45:34.036Z,20.40
2023-01-23T09:48:15.365Z,20.13
2023-01-23T09:50:55.771Z,19.70
2023-01-23T09:53:27.247Z,18.40
2023-01-23T09:56:01.003Z,19.50
2023-01-23T09:58:35.781Z,19.17
2023-01-23T10:01:04.945Z,17.80
2023-01-23T10:03:35.816Z,19.47
2023-01-23T10:06:17.496Z,20.07
2023-01-23T10:08:55.564Z,24.10
2023-01-23T10:11:30.498Z,19.70
2023-01-23T10:14:20.847Z,18.50
2023-01-23T10:17:03.970Z,19.40
2023-01-23T10:19:47.035Z,19.87
2023-01-23T10:22:33.524Z,18.17
2023-01-23T10:25:09.942Z,18.17
2023-01-23T10:27:42.226Z,18.47
2023-01-23T10:30:19.789Z,18.43
2023-01-23T10:32:53.309Z,20.87
2023-01-23T10:35:26.062Z,20.20
2023-01-23T10:38:01.221Z,17.00
2023-01-23T10:40:46.535Z,18.70
2023-01-23T10:43:16.071Z,18.13
2023-01-23T10:45:45.146Z,18.20
2023-01-23T10:48:39.235Z,17.80
2023-01-23T10:51:27.058Z,17.20
2023-01-23T10:54:17.039Z,15.93
2023-01-23T10:56:58.182Z,16.33
2023-01-23T10:59:36.529Z,17.00
2023-01-23T11:02:21.500Z,17.00
2023-01-23T11:04:52.658Z,15.63
2023-01-23T11:07:22.336Z,17.50
2023-01-23T11:09:54.092Z,16.00
2023-01-23T11:12:24.464Z,18.10
2023-01-23T11:14:53.291Z,16.17
2023-01-23T11:17:24.029Z,17.87
2023-01-23T11:19:54.762Z,18.17
2023-01-23T11:22:30.125Z,16.77
2023-01-23T11:24:58.763Z,19.17
2023-01-23T11:27:29.815Z,17.60
2023-01-23T11:30:32.251Z,17.87
2023-01-23T11:33:05.321Z,16.43
2023-01-23T11:35:51.888Z,17.30
2023-01-23T11:38:30.922Z,18.47
2023-01-23T11:40:59.434Z,18.57
2023-01-23T11:43:27.389Z,20.03
2023-01-23T11:46:06.752Z,19.20
2023-01-23T11:48:51.193Z,18.67
2023-01-23T11:51:25.645Z,16.50
2023-01-23T11:54:04.062Z,17.07
2023-01-23T11:56:55.693Z,18.27
2023-01-23T11:59:40.594Z,19.03
2023-01-23T12:02:36.994Z,18.73
2023-01-23T12:05:27.554Z,23.10
2023-01-23T12:08:10.695Z,18.80
2023-01-23T12:10:50.135Z,18.07
2023-01-23T12:13:36.987Z,18.90
2023-01-23T12:16:13.168Z,18.70
2023-01-23T12:18:50.407Z,20.80
2023-01-23T12:21:28.880Z,17.67
2023-01-23T12:24:15.220Z,19.87
2023-01-23T12:26:56.346Z,18.60
2023-01-23T12:29:59.559Z,21.87
2023-01-23T12:32:43.409Z,19.37
2023-01-23T12:35:26.118Z,18.40
2023-01-23T12:38:11.594Z,23.10
2023-01-23T12:40:44.636Z,21.07
2023-01-23T12:43:17.645Z,20.20
2023-01-23T12:45:50.327Z,23.40
2023-01-23T12:48:28.103Z,23.03
2023-01-23T12:51:03.477Z,21.37
2023-01-23T12:53:37.321Z,18.30
2023-01-23T12:56:11.372Z,19.80
2023-01-23T12:58:52.251Z,21.47
2023-01-23T13:01:43.566Z,20.53
2023-01-23T13:04:23.987Z,20.73
2023-01-23T13:07:07.426Z,21.00
2023-01-23T13:09:48.133Z,22.50
2023-01-23T13:12:22.610Z,22.60
2023-01-23T13:15:10.588Z,21.63
2023-01-23T13:17:45.843Z,20.57
2023-01-23T13:20:40.361Z,21.83
2023-01-23T13:23:28.762Z,21.33
2023-01-23T13:26:28.855Z,22.17
2023-01-23T13:29:02.056Z,22.80
2023-01-23T13:31:40.091Z,23.00
2023-01-23T13:34:35.872Z,23.57
2023-01-23T13:37:45.569Z,21.37
2023-01-23T13:40:18.016Z,22.97
2023-01-23T13:42:46.323Z,23.40
2023-01-23T13:45:30.084Z,24.10
2023-01-23T14:21:23.717Z,24.87
2023-01-23T14:23:53.568Z,23.90
2023-01-23T14:26:25.377Z,24.53
2023-01-23T14:28:58.548Z,23.50
2023-01-23T14:31:28.117Z,24.17
2023-01-23T14:34:10.215Z,27.10
2023-01-23T14:36:39.587Z,22.13
2023-01-23T14:39:07.499Z,24.50
2023-01-23T14:41:41.613Z,27.47
2023-01-23T14:44:19.178Z,22.93
2023-01-23T14:46:47.654Z,24.50
2023-01-23T14:49:21.382Z,23.30
2023-01-23T14:51:56.910Z,24.30
2023-01-23T14:54:26.423Z,23.63
2023-01-23T14:56:58.093Z,23.93
2023-01-23T14:59:29.619Z,23.97
2023-01-23T15:01:59.251Z,21.17
2023-01-23T15:04:31.034Z,22.43
2023-01-23T15:07:00.933Z,23.13
2023-01-23T15:09:32.000Z,22.77
2023-01-23T15:12:05.977Z,20.17
2023-01-23T15:14:38.881Z,21.83
2023-01-23T15:17:13.439Z,24.03
2023-01-23T15:19:43.427Z,24.23
2023-01-23T15:22:20.159Z,22.23
2023-01-23T15:24:48.191Z,22.60
2023-01-23T15:27:28.256Z,19.87
2023-01-23T15:30:38.324Z,21.13
2023-01-23T15:33:23.379Z,21.07
2023-01-23T15:35:52.519Z,22.60
2023-01-23T15:38:20.266Z,22.40
2023-01-23T15:40:48.078Z,22.70
2023-01-23T15:43:19.040Z,21.13
2023-01-23T15:45:47.003Z,23.60
2023-01-23T15:48:14.782Z,21.70
2023-01-23T15:50:42.609Z,22.60
2023-01-23T15:53:14.828Z,22.07
2023-01-23T15:55:42.516Z,22.50
2023-01-23T15:58:13.977Z,22.43
2023-01-23T16:00:42.292Z,21.90
2023-01-23T16:03:10.252Z,22.30
2023-01-23T16:05:38.715Z,20.57
2023-01-23T16:08:13.270Z,23.43
2023-01-23T16:10:43.568Z,20.57
2023-01-23T16:13:14.511Z,24.00
2023-01-23T16:15:42.351Z,24.13
2023-01-23T16:18:11.108Z,21.93
2023-01-23T16:20:41.296Z,23.60
2023-01-23T16:23:17.024Z,22.90
2023-01-23T16:25:46.988Z,25.67
2023-01-23T16:28:15.805Z,23.33
2023-01-23T16:30:43.876Z,24.23
2023-01-23T16:33:12.050Z,24.70
2023-01-23T16:35:40.553Z,21.40
2023-01-23T16:38:08.564Z,20.43
2023-01-23T16:40:36.284Z,19.83
2023-01-23T16:43:05.481Z,24.40
2023-01-23T16:45:33.575Z,24.48
2023-01-23T16:48:01.332Z,23.10
2023-01-23T16:50:34.066Z,21.50
2023-01-23T16:53:05.967Z,19.70
2023-01-23T16:55:36.368Z,19.73
2023-01-23T16:58:07.366Z,21.70
2023-01-23T17:00:36.680Z,20.27
2023-01-23T17:03:08.517Z,20.83
2023-01-23T17:05:36.681Z,22.80
2023-01-23T17:08:17.043Z,20.70
2023-01-23T17:10:46.952Z,23.03
2023-01-23T17:13:19.077Z,24.20
2023-01-23T17:15:48.206Z,21.03
2023-01-23T17:18:22.773Z,23.40
2023-01-23T17:20:51.014Z,20.70
2023-01-23T17:23:18.744Z,25.03
2023-01-23T17:25:59.097Z,21.53
2023-01-23T17:28:29.362Z,24.83
2023-01-23T17:31:00.247Z,19.93
2023-01-23T17:33:31.870Z,25.07
2023-01-23T17:36:03.256Z,21.47
2023-01-23T17:38:31.862Z,24.63
2023-01-23T17:40:59.596Z,24.30
2023-01-23T17:43:29.344Z,23.07
2023-01-23T17:45:57.313Z,25.33
2023-01-23T17:48:28.272Z,24.20
2023-01-23T17:50:56.730Z,22.17
2023-01-23T17:53:24.555Z,23.83
2023-01-23T17:55:52.842Z,21.70
2023-01-23T17:58:21.539Z,22.97
2023-01-23T18:00:53.494Z,20.30
2023-01-23T18:03:23.178Z,24.37
2023-01-23T18:05:50.989Z,21.57
2023-01-23T18:08:21.574Z,19.80
2023-01-23T18:10:53.852Z,23.20
2023-01-23T18:13:29.615Z,21.90
2023-01-23T18:16:06.473Z,21.17
2023-01-23T18:18:36.188Z,22.47
2023-01-23T18:21:06.386Z,23.10
2023-01-23T18:23:37.186Z,20.67
2023-01-23T18:26:17.041Z,22.20
2023-01-23T18:28:52.155Z,23.13
2023-01-23T18:31:32.730Z,24.00
2023-01-23T18:34:13.536Z,23.17
2023-01-23T18:36:53.737Z,22.60
2023-01-23T18:39:36.759Z,21.90
2023-01-23T18:42:16.004Z,22.33
2023-01-23T18:44:51.871Z,22.80
2023-01-23T18:47:21.952Z,23.50
2023-01-23T18:49:50.058Z,26.73
2023-01-23T18:52:22.837Z,23.13
2023-01-23T18:54:55.577Z,25.83
2023-01-23T18:57:43.266Z,25.60
2023-01-23T19:00:19.905Z,25.13
2023-01-23T19:02:52.140Z,28.40
2023-01-23T19:05:30.473Z,22.90
2023-01-23T19:07:59.761Z,24.37
2023-01-23T19:10:32.523Z,25.60
2023-01-23T19:13:18.841Z,24.40
2023-01-23T19:15:55.174Z,23.67
2023-01-23T19:18:45.425Z,21.27
2023-01-23T19:21:17.128Z,20.87
2023-01-23T19:23:50.159Z,21.03
2023-01-23T19:26:18.891Z,19.00
2023-01-23T19:28:47.014Z,20.70
2023-01-23T19:31:22.051Z,20.87
2023-01-23T19:33:52.013Z,21.43
2023-01-23T19:36:20.162Z,22.47
2023-01-23T19:38:47.955Z,20.73
2023-01-23T19:41:20.423Z,21.40
2023-01-23T19:43:49.848Z,20.97
2023-01-23T19:46:18.330Z,21.73
2023-01-23T19:48:46.321Z,22.73
2023-01-23T19:51:18.224Z,22.97
2023-01-23T19:53:46.489Z,24.10
2023-01-23T19:56:15.624Z,22.43
2023-01-23T19:58:43.453Z,22.30
2023-01-23T20:01:22.679Z,22.30
2023-01-23T20:03:51.108Z,24.07
2023-01-23T20:06:20.176Z,31.75
2023-01-23T20:08:47.922Z,27.03
2023-01-23T20:11:16.022Z,25.50
2023-01-23T20:13:44.234Z,26.47
2023-01-23T20:16:18.333Z,25.67
2023-01-23T20:18:48.017Z,23.33
2023-01-23T20:21:17.194Z,22.07
2023-01-23T20:23:46.925Z,21.37
2023-01-23T20:26:16.355Z,23.30
2023-01-23T20:28:45.061Z,23.80
2023-01-23T20:31:14.474Z,23.23
2023-01-23T20:33:42.444Z,25.17
2023-01-23T20:36:11.847Z,21.83
2023-01-23T20:38:39.954Z,23.90
2023-01-23T20:41:10.790Z,25.20
2023-01-23T20:43:39.504Z,22.33
2023-01-23T20:46:09.168Z,25.10
2023-01-23T20:48:37.509Z,22.27
2023-01-23T20:51:08.697Z,22.20
2023-01-23T20:53:39.802Z,24.20
2023-01-23T20:56:11.113Z,23.77
2023-01-23T20:58:59.492Z,25.87
2023-01-23T21:01:28.679Z,22.90
2023-01-23T21:03:56.917Z,22.00
2023-01-23T21:06:24.856Z,22.87
2023-01-23T21:08:58.576Z,23.83
2023-01-23T21:11:27.635Z,23.00
2023-01-23T21:13:55.406Z,21.43
2023-01-23T21:16:23.105Z,24.20
2023-01-23T21:18:51.021Z,22.87
2023-01-23T21:21:21.280Z,21.07
2023-01-23T21:23:50.160Z,21.80
2023-01-23T21:26:19.597Z,22.17
2023-01-23T21:28:49.293Z,23.07
2023-01-23T21:31:20.588Z,23.00
2023-01-23T21:33:49.456Z,20.20
2023-01-23T21:36:21.225Z,22.73
2023-01-23T21:38:51.452Z,22.57
2023-01-23T21:41:19.518Z,22.27
2023-01-23T21:43:49.016Z,21.50
2023-01-23T21:46:17.311Z,21.03
2023-01-23T21:48:45.463Z,22.60
2023-01-23T21:51:15.361Z,20.20
2023-01-23T21:53:44.781Z,22.27
2023-01-23T21:56:13.645Z,21.40
2023-01-23T21:58:42.375Z,22.93
2023-01-23T22:01:33.231Z,20.53
2023-01-23T22:04:02.953Z,19.80
2023-01-23T22:06:31.686Z,21.63
2023-01-23T22:08:59.730Z,21.13
2023-01-23T22:11:27.799Z,20.43
2023-01-23T22:13:55.729Z,20.90
2023-01-23T22:16:35.982Z,21.57
2023-01-23T22:19:14.709Z,21.07
2023-01-23T22:21:43.674Z,19.40
2023-01-23T22:24:11.448Z,21.63
2023-01-23T22:26:39.211Z,22.07
2023-01-23T22:29:06.939Z,21.57
2023-01-23T22:31:36.349Z,20.40
2023-01-23T22:34:04.230Z,20.10
2023-01-23T22:36:32.127Z,21.77
2023-01-23T22:39:00.069Z,22.13
2023-01-23T22:41:28.493Z,19.70
2023-01-23T22:43:59.285Z,21.70
2023-01-23T22:46:27.842Z,21.60
2023-01-23T22:48:57.034Z,21.23
2023-01-23T22:51:26.377Z,20.53
2023-01-23T22:53:55.658Z,18.17
2023-01-23T22:56:23.907Z,20.43
2023-01-23T22:58:54.242Z,21.70
2023-01-23T23:01:23.533Z,20.37
2023-01-23T23:03:51.765Z,20.60
2023-01-23T23:06:21.064Z,20.40
2023-01-23T23:08:49.510Z,21.03
2023-01-23T23:11:19.231Z,20.43
2023-01-23T23:13:47.396Z,22.63
2023-01-23T23:16:17.775Z,18.80
2023-01-23T23:18:46.174Z,19.50
2023-01-23T23:21:16.125Z,20.93
2023-01-23T23:23:45.510Z,22.10
2023-01-23T23:26:14.490Z,27.25
2023-01-23T23:28:43.039Z,22.03
2023-01-23T23:31:11.189Z,22.17
2023-01-23T23:33:39.375Z,23.60
2023-01-23T23:36:08.208Z,22.00
2023-01-23T23:38:36.034Z,20.83
2023-01-23T23:41:07.521Z,22.70
2023-01-23T23:43:35.726Z,20.93
2023-01-23T23:46:06.204Z,21.27
2023-01-23T23:48:35.793Z,21.13
2023-01-23T23:51:04.672Z,20.00
2023-01-23T23:53:32.811Z,22.20
2023-01-23T23:56:00.595Z,21.90
2023-01-23T23:58:29.718Z,22.57
